createdAt,value
2022-11-17T00:00:04.095Z,90.55
2022-11-17T00:01:04.105Z,90.59
2022-11-17T00:02:04.123Z,90.65
2022-11-17T00:03:04.066Z,90.55
2022-11-17T00:04:04.049Z,90.44
2022-11-17T00:05:04.044Z,90.55
2022-11-17T00:06:04.060Z,90.55
2022-11-17T00:07:04.077Z,90.55
2022-11-17T00:08:04.006Z,90.55
2022-11-17T00:09:04.000Z,90.44
2022-11-17T00:10:03.984Z,90.14
2022-11-17T00:11:03.976Z,90.14
2022-11-17T00:12:03.999Z,90.24
2022-11-17T00:13:03.955Z,90.14
2022-11-17T00:14:03.955Z,90.14
2022-11-17T00:15:03.943Z,90.03
2022-11-17T00:16:03.932Z,89.93
2022-11-17T00:17:03.938Z,89.93
2022-11-17T00:18:03.898Z,89.93
2022-11-17T00:19:03.895Z,89.93
2022-11-17T00:20:03.878Z,90.03
2022-11-17T00:21:03.877Z,90.14
2022-11-17T00:22:03.869Z,89.93
2022-11-17T00:23:03.857Z,89.83
2022-11-17T00:24:03.839Z,89.62
2022-11-17T00:25:03.830Z,89.62
2022-11-17T00:26:03.818Z,89.72
2022-11-17T00:27:03.840Z,89.72
2022-11-17T00:28:03.790Z,89.72
2022-11-17T00:29:03.791Z,89.62
2022-11-17T00:30:03.775Z,89.42
2022-11-17T00:31:03.770Z,89.52
2022-11-17T00:32:03.771Z,89.42
2022-11-17T00:33:03.749Z,89.11
2022-11-17T00:34:03.743Z,89.11
2022-11-17T00:35:03.722Z,89.21
2022-11-17T00:36:03.711Z,89.42
2022-11-17T00:37:03.724Z,88.90
2022-11-17T00:38:03.693Z,88.80
2022-11-17T00:39:03.684Z,89.01
2022-11-17T00:40:03.665Z,89.21
2022-11-17T00:41:03.674Z,89.21
2022-11-17T00:42:03.672Z,89.11
2022-11-17T00:43:03.645Z,89.11
2022-11-17T00:44:03.628Z,89.11
2022-11-17T00:45:03.627Z,89.21
2022-11-17T00:46:03.609Z,89.31
2022-11-17T00:47:03.616Z,89.42
2022-11-17T00:48:03.596Z,89.21
2022-11-17T00:49:03.592Z,89.01
2022-11-17T00:50:03.557Z,89.01
2022-11-17T00:51:03.557Z,89.01
2022-11-17T00:52:03.568Z,89.11
2022-11-17T00:53:03.667Z,89.01
2022-11-17T00:54:03.529Z,89.11
2022-11-17T00:55:03.569Z,89.11
2022-11-17T00:56:03.498Z,89.01
2022-11-17T00:57:03.509Z,88.90
2022-11-17T00:58:03.569Z,88.80
2022-11-17T00:59:03.470Z,88.49
2022-11-17T01:00:03.460Z,88.39
2022-11-17T01:01:03.491Z,88.49
2022-11-17T01:02:03.460Z,88.59
2022-11-17T01:03:03.499Z,88.29
2022-11-17T01:04:03.826Z,88.29
2022-11-17T01:05:03.405Z,88.39
2022-11-17T01:06:03.394Z,88.39
2022-11-17T01:07:03.456Z,88.39
2022-11-17T01:08:03.445Z,88.49
2022-11-17T01:09:03.372Z,88.70
2022-11-17T01:10:03.354Z,88.70
2022-11-17T01:11:03.342Z,88.59
2022-11-17T01:12:03.355Z,88.59
2022-11-17T01:13:03.324Z,88.59
2022-11-17T01:14:03.325Z,88.49
2022-11-17T01:15:03.310Z,88.49
2022-11-17T01:16:03.292Z,88.39
2022-11-17T01:17:03.294Z,88.29
2022-11-17T01:18:03.275Z,88.39
2022-11-17T01:19:03.255Z,88.39
2022-11-17T01:20:03.255Z,88.39
2022-11-17T01:21:03.240Z,88.49
2022-11-17T01:22:03.256Z,88.49
2022-11-17T01:23:03.239Z,88.39
2022-11-17T01:24:03.207Z,88.39
2022-11-17T01:25:03.188Z,88.39
2022-11-17T01:26:03.196Z,88.49
2022-11-17T01:27:03.208Z,88.18
2022-11-17T01:28:03.166Z,88.29
2022-11-17T01:29:03.150Z,88.39
2022-11-17T01:30:03.151Z,88.39
2022-11-17T01:31:03.129Z,88.39
2022-11-17T01:32:03.147Z,88.49
2022-11-17T01:33:03.144Z,88.49
2022-11-17T01:34:03.114Z,88.39
2022-11-17T01:35:03.089Z,88.29
2022-11-17T01:36:03.081Z,88.29
2022-11-17T01:37:03.081Z,88.29
2022-11-17T01:38:03.064Z,88.49
2022-11-17T01:39:03.068Z,88.49
2022-11-17T01:40:03.053Z,88.29
2022-11-17T01:41:03.029Z,88.18
2022-11-17T01:42:03.035Z,88.29
2022-11-17T01:43:03.005Z,88.39
2022-11-17T01:44:03.001Z,88.29
2022-11-17T01:45:03.000Z,88.39
2022-11-17T01:46:03.734Z,88.39
2022-11-17T01:47:02.983Z,88.49
2022-11-17T01:48:02.954Z,88.39
2022-11-17T01:49:02.943Z,88.49
2022-11-17T01:50:02.934Z,88.59
2022-11-17T01:51:02.915Z,88.59
2022-11-17T01:52:02.933Z,88.59
2022-11-17T01:53:02.895Z,88.49
2022-11-17T01:54:02.895Z,88.39
2022-11-17T01:55:02.878Z,88.39
2022-11-17T01:56:02.867Z,88.39
2022-11-17T01:57:02.877Z,88.39
2022-11-17T01:58:02.848Z,88.29
2022-11-17T01:59:02.836Z,88.39
2022-11-17T02:00:02.835Z,88.49
2022-11-17T02:01:02.815Z,88.29
2022-11-17T02:02:02.877Z,88.18
2022-11-17T02:03:02.795Z,88.18
2022-11-17T02:04:02.788Z,88.08
2022-11-17T02:05:02.769Z,88.18
2022-11-17T02:06:02.767Z,88.29
2022-11-17T02:07:02.797Z,88.18
2022-11-17T02:08:02.751Z,88.18
2022-11-17T02:09:02.776Z,88.18
2022-11-17T02:10:02.719Z,88.29
2022-11-17T02:11:02.706Z,88.39
2022-11-17T02:12:02.721Z,88.49
2022-11-17T02:13:02.702Z,88.49
2022-11-17T02:14:02.684Z,88.39
2022-11-17T02:15:02.663Z,88.49
2022-11-17T02:16:02.676Z,88.49
2022-11-17T02:17:10.152Z,88.49
2022-11-17T02:18:03.645Z,88.59
2022-11-17T02:19:02.636Z,88.70
2022-11-17T02:20:02.620Z,88.49
2022-11-17T02:21:02.604Z,88.53
2022-11-17T02:22:02.631Z,88.53
2022-11-17T02:23:02.582Z,88.53
2022-11-17T02:24:02.589Z,88.74
2022-11-17T02:25:02.564Z,88.64
2022-11-17T02:26:02.559Z,88.74
2022-11-17T02:27:02.556Z,88.84
2022-11-17T02:28:02.554Z,88.84
2022-11-17T02:29:02.515Z,88.84
2022-11-17T02:30:02.519Z,88.64
2022-11-17T02:31:02.496Z,88.53
2022-11-17T02:32:02.506Z,88.64
2022-11-17T02:33:02.484Z,88.53
2022-11-17T02:34:02.466Z,88.64
2022-11-17T02:35:02.458Z,88.64
2022-11-17T02:36:02.448Z,88.74
2022-11-17T02:37:02.447Z,88.74
2022-11-17T02:38:02.429Z,88.95
2022-11-17T02:39:02.414Z,88.84
2022-11-17T02:40:02.412Z,88.74
2022-11-17T02:41:02.396Z,88.84
2022-11-17T02:42:02.415Z,88.84
2022-11-17T02:43:02.371Z,88.74
2022-11-17T02:44:02.373Z,89.04
2022-11-17T02:45:02.356Z,89.25
2022-11-17T02:46:02.349Z,89.36
2022-11-17T02:47:02.340Z,89.46
2022-11-17T02:48:02.320Z,89.56
2022-11-17T02:49:02.317Z,89.66
2022-11-17T02:50:02.301Z,89.46
2022-11-17T02:51:02.300Z,89.56
2022-11-17T02:52:02.308Z,89.56
2022-11-17T02:53:02.262Z,89.56
2022-11-17T02:54:02.260Z,89.66
2022-11-17T02:55:02.242Z,89.66
2022-11-17T02:56:02.241Z,89.66
2022-11-17T02:57:02.242Z,89.87
2022-11-17T02:58:02.220Z,89.87
2022-11-17T02:59:02.202Z,89.76
2022-11-17T03:00:02.196Z,89.76
2022-11-17T03:01:02.182Z,89.87
2022-11-17T03:02:02.238Z,89.87
2022-11-17T03:03:02.182Z,89.76
2022-11-17T03:04:02.155Z,89.76
2022-11-17T03:05:02.144Z,89.66
2022-11-17T03:06:02.136Z,89.76
2022-11-17T03:07:02.200Z,89.76
2022-11-17T03:08:02.146Z,89.66
2022-11-17T03:09:02.098Z,89.66
2022-11-17T03:10:02.090Z,89.66
2022-11-17T03:11:02.075Z,89.76
2022-11-17T03:12:02.067Z,89.87
2022-11-17T03:13:02.076Z,90.08
2022-11-17T03:14:02.046Z,89.97
2022-11-17T03:15:02.042Z,89.97
2022-11-17T03:16:02.024Z,89.97
2022-11-17T03:17:02.016Z,89.97
2022-11-17T03:18:02.049Z,89.97
2022-11-17T03:19:01.997Z,90.08
2022-11-17T03:20:02.002Z,90.08
2022-11-17T03:21:01.970Z,90.08
2022-11-17T03:22:01.960Z,89.97
2022-11-17T03:23:01.960Z,90.08
2022-11-17T03:24:01.950Z,90.18
2022-11-17T03:25:01.931Z,90.28
2022-11-17T03:26:01.921Z,90.18
2022-11-17T03:27:01.901Z,90.18
2022-11-17T03:28:01.919Z,90.08
2022-11-17T03:29:01.885Z,90.08
2022-11-17T03:30:01.883Z,90.08
2022-11-17T03:31:01.861Z,90.18
2022-11-17T03:32:01.853Z,90.18
2022-11-17T03:33:01.853Z,89.97
2022-11-17T03:34:01.833Z,90.08
2022-11-17T03:35:01.819Z,90.18
2022-11-17T03:36:01.816Z,90.08
2022-11-17T03:37:01.802Z,90.08
2022-11-17T03:38:01.811Z,90.18
2022-11-17T03:39:01.784Z,90.28
2022-11-17T03:40:01.774Z,90.28
2022-11-17T03:41:01.771Z,90.18
2022-11-17T03:42:01.757Z,90.18
2022-11-17T03:43:01.757Z,90.28
2022-11-17T03:44:01.736Z,90.38
2022-11-17T03:45:01.713Z,90.18
2022-11-17T03:46:01.706Z,90.18
2022-11-17T03:47:01.699Z,90.28
2022-11-17T03:48:01.707Z,90.18
2022-11-17T03:49:01.667Z,90.08
2022-11-17T03:50:01.664Z,90.08
2022-11-17T03:51:01.647Z,89.97
2022-11-17T03:52:01.645Z,89.87
2022-11-17T03:53:01.648Z,89.97
2022-11-17T03:54:01.637Z,89.87
2022-11-17T03:55:01.608Z,89.97
2022-11-17T03:56:01.598Z,89.97
2022-11-17T03:57:02.558Z,89.97
2022-11-17T03:58:01.598Z,89.66
2022-11-17T03:59:01.582Z,89.66
2022-11-17T04:00:01.560Z,89.56
2022-11-17T04:01:01.547Z,89.76
2022-11-17T04:02:01.597Z,89.76
2022-11-17T04:03:01.549Z,89.76
2022-11-17T04:04:01.517Z,89.87
2022-11-17T04:05:01.503Z,89.97
2022-11-17T04:06:01.493Z,89.97
2022-11-17T04:07:01.547Z,89.66
2022-11-17T04:08:01.493Z,89.66
2022-11-17T04:09:01.461Z,89.76
2022-11-17T04:10:01.452Z,89.76
2022-11-17T04:11:01.453Z,89.66
2022-11-17T04:12:01.444Z,89.66
2022-11-17T04:13:01.435Z,89.66
2022-11-17T04:14:01.417Z,89.76
2022-11-17T04:15:01.400Z,89.66
2022-11-17T04:16:01.391Z,89.36
2022-11-17T04:17:01.372Z,89.46
2022-11-17T04:18:01.383Z,89.56
2022-11-17T04:19:01.356Z,89.46
2022-11-17T04:20:01.354Z,89.15
2022-11-17T04:21:01.348Z,88.84
2022-11-17T04:22:01.326Z,88.95
2022-11-17T04:23:01.325Z,89.15
2022-11-17T04:24:01.308Z,89.04
2022-11-17T04:25:01.296Z,89.15
2022-11-17T04:26:01.285Z,89.04
2022-11-17T04:27:01.268Z,89.15
2022-11-17T04:28:01.278Z,89.25
2022-11-17T04:29:01.248Z,89.15
2022-11-17T04:30:01.256Z,89.15
2022-11-17T04:31:01.229Z,89.04
2022-11-17T04:32:01.228Z,89.25
2022-11-17T04:33:01.220Z,89.15
2022-11-17T04:34:01.200Z,89.25
2022-11-17T04:35:01.181Z,89.46
2022-11-17T04:36:01.181Z,89.76
2022-11-17T04:37:06.959Z,89.46
2022-11-17T04:38:02.171Z,89.46
2022-11-17T04:39:01.142Z,89.76
2022-11-17T04:40:01.142Z,89.97
2022-11-17T04:41:01.120Z,89.87
2022-11-17T04:42:01.120Z,90.08
2022-11-17T04:43:01.112Z,90.18
2022-11-17T04:44:01.094Z,90.18
2022-11-17T04:45:01.080Z,90.38
2022-11-17T04:46:01.084Z,90.69
2022-11-17T04:47:01.056Z,90.69
2022-11-17T04:48:01.065Z,90.73
2022-11-17T04:49:01.041Z,90.73
2022-11-17T04:50:01.034Z,90.63
2022-11-17T04:51:01.014Z,90.63
2022-11-17T04:52:01.005Z,90.94
2022-11-17T04:53:01.005Z,90.83
2022-11-17T04:54:00.987Z,90.53
2022-11-17T04:55:00.973Z,90.63
2022-11-17T04:56:00.968Z,90.63
2022-11-17T04:57:00.955Z,90.94
2022-11-17T04:58:00.965Z,90.83
2022-11-17T04:59:00.937Z,90.83
2022-11-17T05:00:00.928Z,90.73
2022-11-17T05:01:00.907Z,90.83
2022-11-17T05:02:05.672Z,91.04
2022-11-17T05:03:01.905Z,91.35
2022-11-17T05:04:00.888Z,91.45
2022-11-17T05:05:00.862Z,91.25
2022-11-17T05:06:00.872Z,91.25
2022-11-17T05:07:00.901Z,91.45
2022-11-17T05:08:00.852Z,91.55
2022-11-17T05:09:00.837Z,91.55
2022-11-17T05:10:00.818Z,91.35
2022-11-17T05:11:00.824Z,91.70
2022-11-17T05:12:00.799Z,91.91
2022-11-17T05:13:00.800Z,92.11
2022-11-17T05:14:00.769Z,92.21
2022-11-17T05:15:00.761Z,92.11
2022-11-17T05:16:00.766Z,92.32
2022-11-17T05:17:04.650Z,92.42
2022-11-17T05:18:01.752Z,92.52
2022-11-17T05:19:00.723Z,92.52
2022-11-17T05:20:00.704Z,92.63
2022-11-17T05:21:00.711Z,92.63
2022-11-17T05:22:00.694Z,92.42
2022-11-17T05:23:06.361Z,92.11
2022-11-17T05:24:01.661Z,91.91
2022-11-17T05:25:00.663Z,92.11
2022-11-17T05:26:00.694Z,92.11
2022-11-17T05:27:00.637Z,92.11
2022-11-17T05:28:00.644Z,92.01
2022-11-17T05:29:00.615Z,92.32
2022-11-17T05:30:00.605Z,92.52
2022-11-17T05:31:00.595Z,92.52
2022-11-17T05:32:00.577Z,92.42
2022-11-17T05:33:00.596Z,92.01
2022-11-17T05:34:00.563Z,92.01
2022-11-17T05:35:00.559Z,92.11
2022-11-17T05:36:00.547Z,92.42
2022-11-17T05:37:00.529Z,92.32
2022-11-17T05:38:00.536Z,92.32
2022-11-17T05:39:00.511Z,92.32
2022-11-17T05:40:00.497Z,92.42
2022-11-17T05:41:00.503Z,92.42
2022-11-17T05:42:00.482Z,92.21
2022-11-17T05:43:00.481Z,92.32
2022-11-17T05:44:00.451Z,92.52
2022-11-17T05:45:00.454Z,92.83
2022-11-17T05:46:00.439Z,92.42
2022-11-17T05:47:00.431Z,92.52
2022-11-17T05:48:00.431Z,92.73
2022-11-17T05:49:00.401Z,92.42
2022-11-17T05:50:00.400Z,92.42
2022-11-17T05:51:00.384Z,92.63
2022-11-17T05:52:00.372Z,92.73
2022-11-17T05:53:00.386Z,92.73
2022-11-17T05:54:00.354Z,92.73
2022-11-17T05:55:00.344Z,92.73
2022-11-17T05:56:00.344Z,92.73
2022-11-17T05:57:00.324Z,92.73
2022-11-17T05:58:00.324Z,92.83
2022-11-17T05:59:00.303Z,92.73
2022-11-17T06:00:00.302Z,92.73
2022-11-17T06:01:00.289Z,92.63
2022-11-17T06:02:00.276Z,92.42
2022-11-17T06:03:00.276Z,92.52
2022-11-17T06:04:00.313Z,92.63
2022-11-17T06:05:00.245Z,92.73
2022-11-17T06:06:00.219Z,92.32
2022-11-17T06:07:00.296Z,92.21
2022-11-17T06:08:00.216Z,92.42
2022-11-17T06:09:00.199Z,92.52
2022-11-17T06:10:01.000Z,92.42
2022-11-17T06:11:00.177Z,92.42
2022-11-17T06:12:05.563Z,92.63
2022-11-17T06:13:01.169Z,92.63
2022-11-17T06:14:00.143Z,92.21
2022-11-17T06:15:00.148Z,91.91
2022-11-17T06:16:00.117Z,92.11
2022-11-17T06:17:00.108Z,92.01
2022-11-17T06:18:00.122Z,92.11
2022-11-17T06:19:00.092Z,92.21
2022-11-17T06:20:00.105Z,91.91
2022-11-17T06:21:00.075Z,91.80
2022-11-17T06:22:15.317Z,91.70
2022-11-17T06:23:01.066Z,91.80
2022-11-17T06:24:00.029Z,92.01
2022-11-17T06:25:00.024Z,92.11
2022-11-17T06:25:59.963Z,91.91
2022-11-17T06:26:59.952Z,91.49
2022-11-17T06:28:00.150Z,91.60
2022-11-17T06:28:59.987Z,91.49
2022-11-17T06:29:59.967Z,91.49
2022-11-17T06:30:59.964Z,91.60
2022-11-17T06:31:59.945Z,91.80
2022-11-17T06:32:59.962Z,91.80
2022-11-17T06:33:59.923Z,91.70
2022-11-17T06:34:59.924Z,91.49
2022-11-17T06:35:59.865Z,91.39
2022-11-17T06:36:59.854Z,91.39
2022-11-17T06:37:59.886Z,91.29
2022-11-17T06:38:59.895Z,91.19
2022-11-17T06:39:59.818Z,91.08
2022-11-17T06:40:59.799Z,91.29
2022-11-17T06:41:59.844Z,91.39
2022-11-17T06:42:59.832Z,91.08
2022-11-17T06:43:59.790Z,90.88
2022-11-17T06:44:59.760Z,90.78
2022-11-17T06:45:59.739Z,90.78
2022-11-17T06:46:59.739Z,90.67
2022-11-17T06:47:59.726Z,90.94
2022-11-17T06:48:59.732Z,91.35
2022-11-17T06:49:59.701Z,91.14
2022-11-17T06:50:59.692Z,91.04
2022-11-17T06:51:59.678Z,91.25
2022-11-17T06:52:59.672Z,91.14
2022-11-17T06:53:59.682Z,90.83
2022-11-17T06:54:59.654Z,90.73
2022-11-17T06:55:59.642Z,91.35
2022-11-17T06:56:59.642Z,91.29
2022-11-17T06:57:59.617Z,90.63
2022-11-17T06:58:59.634Z,91.04
2022-11-17T06:59:59.603Z,90.94
2022-11-17T07:00:59.639Z,91.25
2022-11-17T07:01:59.576Z,91.76
2022-11-17T07:02:59.576Z,92.01
2022-11-17T07:03:59.572Z,91.97
2022-11-17T07:04:59.546Z,91.76
2022-11-17T07:05:59.536Z,91.70
2022-11-17T07:06:59.566Z,91.49
2022-11-17T07:07:59.517Z,91.60
2022-11-17T07:08:59.526Z,91.49
2022-11-17T07:09:59.488Z,91.29
2022-11-17T07:10:59.487Z,91.19
2022-11-17T07:11:59.471Z,91.39
2022-11-17T07:12:59.467Z,91.49
2022-11-17T07:13:59.474Z,91.45
2022-11-17T07:14:59.459Z,91.55
2022-11-17T07:15:59.421Z,91.49
2022-11-17T07:16:59.419Z,91.60
2022-11-17T07:17:59.401Z,91.86
2022-11-17T07:18:59.479Z,92.07
2022-11-17T07:19:59.380Z,92.27
2022-11-17T07:20:59.380Z,92.27
2022-11-17T07:21:59.369Z,92.38
2022-11-17T07:22:59.375Z,92.38
2022-11-17T07:23:59.366Z,92.27
2022-11-17T07:24:59.340Z,92.07
2022-11-17T07:25:59.321Z,92.07
2022-11-17T07:26:59.315Z,92.38
2022-11-17T07:27:59.301Z,92.27
2022-11-17T07:28:59.315Z,92.17
2022-11-17T07:29:59.274Z,92.38
2022-11-17T07:30:59.273Z,92.38
2022-11-17T07:31:59.253Z,91.97
2022-11-17T07:32:59.252Z,92.07
2022-11-17T07:33:59.254Z,92.17
2022-11-17T07:34:59.233Z,92.07
2022-11-17T07:35:59.215Z,91.97
2022-11-17T07:36:59.206Z,91.76
2022-11-17T07:37:59.193Z,91.86
2022-11-17T07:38:59.205Z,91.97
2022-11-17T07:39:59.174Z,91.97
2022-11-17T07:40:59.166Z,92.27
2022-11-17T07:41:59.162Z,92.27
2022-11-17T07:42:59.154Z,92.27
2022-11-17T07:43:59.147Z,92.27
2022-11-17T07:44:59.127Z,92.38
2022-11-17T07:45:59.107Z,92.48
2022-11-17T07:46:59.099Z,92.07
2022-11-17T07:47:59.090Z,91.97
2022-11-17T07:48:59.096Z,91.86
2022-11-17T07:49:59.067Z,91.86
2022-11-17T07:50:59.060Z,92.07
2022-11-17T07:51:59.049Z,92.17
2022-11-17T07:52:59.039Z,92.27
2022-11-17T07:53:59.040Z,92.27
2022-11-17T07:54:59.020Z,92.17
2022-11-17T07:55:59.001Z,92.17
2022-11-17T07:56:59.000Z,92.07
2022-11-17T07:57:58.985Z,91.97
2022-11-17T07:58:58.989Z,91.97
2022-11-17T07:59:58.959Z,92.07
2022-11-17T08:00:59.061Z,91.97
2022-11-17T08:01:58.942Z,91.66
2022-11-17T08:02:58.934Z,91.86
2022-11-17T08:03:59.000Z,91.86
2022-11-17T08:04:58.912Z,91.97
2022-11-17T08:05:58.904Z,92.27
2022-11-17T08:06:58.909Z,92.17
2022-11-17T08:07:58.883Z,92.27
2022-11-17T08:08:58.894Z,92.27
2022-11-17T08:09:58.864Z,92.38
2022-11-17T08:10:58.845Z,92.38
2022-11-17T08:11:58.832Z,92.07
2022-11-17T08:12:58.833Z,92.07
2022-11-17T08:13:58.833Z,92.03
2022-11-17T08:14:58.806Z,92.33
2022-11-17T08:15:58.789Z,92.33
2022-11-17T08:16:58.785Z,92.33
2022-11-17T08:17:58.768Z,92.33
2022-11-17T08:18:58.785Z,92.13
2022-11-17T08:19:58.748Z,91.93
2022-11-17T08:20:58.745Z,91.93
2022-11-17T08:21:58.728Z,92.03
2022-11-17T08:22:58.728Z,92.13
2022-11-17T08:23:58.726Z,92.23
2022-11-17T08:24:58.699Z,92.23
2022-11-17T08:25:58.685Z,91.82
2022-11-17T08:26:58.689Z,91.82
2022-11-17T08:27:58.673Z,91.82
2022-11-17T08:28:59.140Z,91.93
2022-11-17T08:29:58.641Z,91.93
2022-11-17T08:30:58.640Z,91.82
2022-11-17T08:31:58.630Z,92.03
2022-11-17T08:32:58.618Z,92.23
2022-11-17T08:33:58.619Z,92.33
2022-11-17T08:34:58.591Z,92.13
2022-11-17T08:35:58.582Z,92.03
2022-11-17T08:36:58.572Z,91.93
2022-11-17T08:37:58.562Z,92.13
2022-11-17T08:38:58.572Z,92.23
2022-11-17T08:39:58.539Z,92.23
2022-11-17T08:40:58.533Z,92.03
2022-11-17T08:41:58.514Z,92.03
2022-11-17T08:43:01.294Z,91.93
2022-11-17T08:43:58.511Z,91.93
2022-11-17T08:44:58.491Z,92.03
2022-11-17T08:45:58.475Z,92.23
2022-11-17T08:46:58.474Z,92.33
2022-11-17T08:47:58.446Z,92.33
2022-11-17T08:48:58.464Z,92.44
2022-11-17T08:49:58.434Z,92.44
2022-11-17T08:50:58.427Z,92.44
2022-11-17T08:51:58.416Z,92.54
2022-11-17T08:52:58.405Z,92.54
2022-11-17T08:53:58.406Z,92.44
2022-11-17T08:54:58.395Z,92.54
2022-11-17T08:55:58.407Z,92.54
2022-11-17T08:56:58.424Z,92.70
2022-11-17T08:57:58.356Z,93.01
2022-11-17T08:58:58.357Z,92.80
2022-11-17T08:59:58.327Z,92.60
2022-11-17T09:01:03.850Z,92.50
2022-11-17T09:01:59.311Z,92.60
2022-11-17T09:02:58.299Z,92.70
2022-11-17T09:03:58.302Z,92.70
2022-11-17T09:04:58.282Z,92.60
2022-11-17T09:05:58.368Z,92.70
2022-11-17T09:06:58.307Z,92.70
2022-11-17T09:08:15.944Z,92.70
2022-11-17T09:08:59.879Z,92.40
2022-11-17T09:09:58.222Z,92.19
2022-11-17T09:10:58.209Z,92.08
2022-11-17T09:11:58.201Z,92.29
2022-11-17T09:12:58.184Z,92.29
2022-11-17T09:13:58.216Z,92.29
2022-11-17T09:14:58.163Z,91.99
2022-11-17T09:15:58.163Z,92.08
2022-11-17T09:16:58.143Z,92.29
2022-11-17T09:17:58.133Z,92.50
2022-11-17T09:18:58.145Z,92.60
2022-11-17T09:19:58.123Z,92.60
2022-11-17T09:20:58.104Z,92.60
2022-11-17T09:21:58.095Z,92.70
2022-11-17T09:22:58.086Z,92.70
2022-11-17T09:23:58.093Z,92.70
2022-11-17T09:24:58.069Z,92.80
2022-11-17T09:25:58.056Z,92.91
2022-11-17T09:26:58.047Z,92.91
2022-11-17T09:27:58.035Z,93.01
2022-11-17T09:28:58.034Z,93.21
2022-11-17T09:29:58.016Z,93.42
2022-11-17T09:30:59.215Z,93.73
2022-11-17T09:31:57.988Z,93.83
2022-11-17T09:32:57.975Z,93.89
2022-11-17T09:34:00.751Z,93.99
2022-11-17T09:34:58.975Z,94.10
2022-11-17T09:35:57.949Z,94.10
2022-11-17T09:36:57.931Z,94.10
2022-11-17T09:37:57.939Z,94.10
2022-11-17T09:38:57.929Z,94.10
2022-11-17T09:39:57.907Z,94.30
2022-11-17T09:40:57.892Z,94.26
2022-11-17T09:41:57.916Z,94.36
2022-11-17T09:42:57.872Z,94.46
2022-11-17T09:43:57.886Z,94.46
2022-11-17T09:44:57.849Z,94.46
2022-11-17T09:45:59.895Z,94.56
2022-11-17T09:46:58.829Z,94.46
2022-11-17T09:48:12.430Z,94.36
2022-11-17T09:48:58.822Z,94.36
2022-11-17T09:49:59.264Z,94.26
2022-11-17T09:50:57.797Z,94.15
2022-11-17T09:51:57.775Z,94.05
2022-11-17T09:52:57.764Z,94.05
2022-11-17T09:53:57.775Z,94.05
2022-11-17T09:54:57.744Z,93.95
2022-11-17T09:55:57.734Z,93.95
2022-11-17T09:56:57.726Z,93.85
2022-11-17T09:57:57.715Z,93.85
2022-11-17T09:58:57.725Z,93.95
2022-11-17T09:59:57.697Z,94.05
2022-11-17T10:00:57.680Z,94.36
2022-11-17T10:01:57.697Z,94.46
2022-11-17T10:02:57.657Z,94.46
2022-11-17T10:03:57.667Z,94.46
2022-11-17T10:04:57.638Z,94.46
2022-11-17T10:05:57.637Z,94.56
2022-11-17T10:06:57.665Z,94.56
2022-11-17T10:07:57.609Z,94.56
2022-11-17T10:08:57.620Z,94.46
2022-11-17T10:09:57.589Z,94.46
2022-11-17T10:10:57.570Z,94.56
2022-11-17T10:11:57.572Z,94.56
2022-11-17T10:12:57.552Z,94.67
2022-11-17T10:13:57.582Z,94.67
2022-11-17T10:14:57.541Z,94.67
2022-11-17T10:15:57.526Z,94.56
2022-11-17T10:16:57.510Z,94.56
2022-11-17T10:17:57.511Z,94.46
2022-11-17T10:18:57.491Z,94.36
2022-11-17T10:19:57.507Z,94.36
2022-11-17T10:20:57.475Z,94.46
2022-11-17T10:21:57.473Z,94.46
2022-11-17T10:22:57.451Z,94.46
2022-11-17T10:23:57.440Z,94.26
2022-11-17T10:24:57.444Z,94.05
2022-11-17T10:25:57.422Z,93.64
2022-11-17T10:26:57.406Z,93.54
2022-11-17T10:27:57.395Z,93.64
2022-11-17T10:28:57.375Z,93.64
2022-11-17T10:29:57.396Z,93.44
2022-11-17T10:30:57.356Z,93.33
2022-11-17T10:31:57.373Z,93.44
2022-11-17T10:32:57.345Z,93.85
2022-11-17T10:33:57.425Z,93.95
2022-11-17T10:34:57.339Z,93.95
2022-11-17T10:35:57.337Z,93.85
2022-11-17T10:36:57.309Z,93.95
2022-11-17T10:37:57.291Z,93.85
2022-11-17T10:38:57.280Z,93.95
2022-11-17T10:39:57.289Z,94.05
2022-11-17T10:40:57.259Z,94.15
2022-11-17T10:41:57.250Z,94.26
2022-11-17T10:42:57.242Z,94.46
2022-11-17T10:43:57.229Z,94.46
2022-11-17T10:44:57.231Z,94.56
2022-11-17T10:45:57.223Z,94.46
2022-11-17T10:47:01.906Z,94.36
2022-11-17T10:47:58.190Z,94.26
2022-11-17T10:48:57.172Z,94.36
2022-11-17T10:49:57.187Z,94.36
2022-11-17T10:50:57.162Z,94.36
2022-11-17T10:51:57.143Z,94.46
2022-11-17T10:52:57.133Z,94.56
2022-11-17T10:53:57.123Z,94.56
2022-11-17T10:54:57.133Z,94.77
2022-11-17T10:55:57.103Z,94.83
2022-11-17T10:56:57.084Z,95.03
2022-11-17T10:57:57.082Z,94.93
2022-11-17T10:58:57.064Z,95.07
2022-11-17T10:59:57.629Z,95.14
2022-11-17T11:00:57.083Z,95.28
2022-11-17T11:01:57.036Z,95.24
2022-11-17T11:02:57.034Z,95.39
2022-11-17T11:03:57.028Z,95.39
2022-11-17T11:04:57.026Z,95.39
2022-11-17T11:05:56.997Z,95.39
2022-11-17T11:06:57.024Z,95.49
2022-11-17T11:07:56.979Z,95.39
2022-11-17T11:08:56.969Z,95.44
2022-11-17T11:09:56.975Z,95.54
2022-11-17T11:10:56.941Z,95.65
2022-11-17T11:11:56.936Z,95.75
2022-11-17T11:12:56.927Z,95.86
2022-11-17T11:13:56.923Z,95.75
2022-11-17T11:14:56.922Z,95.65
2022-11-17T11:15:56.891Z,95.54
2022-11-17T11:16:56.877Z,95.44
2022-11-17T11:17:56.877Z,95.44
2022-11-17T11:18:56.862Z,95.44
2022-11-17T11:19:56.869Z,95.44
2022-11-17T11:20:56.839Z,95.44
2022-11-17T11:21:56.832Z,95.44
2022-11-17T11:22:56.819Z,95.44
2022-11-17T11:23:56.811Z,95.54
2022-11-17T11:24:56.813Z,95.65
2022-11-17T11:25:56.785Z,95.75
2022-11-17T11:26:56.781Z,95.65
2022-11-17T11:27:56.764Z,95.65
2022-11-17T11:28:56.744Z,95.75
2022-11-17T11:29:56.814Z,95.75
2022-11-17T11:30:56.734Z,95.75
2022-11-17T11:31:56.725Z,95.75
2022-11-17T11:32:56.708Z,95.75
2022-11-17T11:33:56.704Z,95.75
2022-11-17T11:34:56.707Z,95.65
2022-11-17T11:35:56.684Z,95.65
2022-11-17T11:36:56.666Z,95.65
2022-11-17T11:37:56.684Z,95.75
2022-11-17T11:38:56.647Z,95.75
2022-11-17T11:39:56.659Z,95.75
2022-11-17T11:40:56.628Z,95.75
2022-11-17T11:41:56.617Z,95.86
2022-11-17T11:42:56.606Z,95.95
2022-11-17T11:43:56.597Z,95.95
2022-11-17T11:44:56.598Z,95.86
2022-11-17T11:45:56.580Z,95.91
2022-11-17T11:46:56.570Z,95.91
2022-11-17T11:47:56.550Z,95.91
2022-11-17T11:48:56.542Z,95.91
2022-11-17T11:49:56.569Z,95.91
2022-11-17T11:50:56.521Z,95.91
2022-11-17T11:51:56.513Z,95.91
2022-11-17T11:52:56.500Z,95.91
2022-11-17T11:53:56.493Z,95.91
2022-11-17T11:54:56.494Z,95.81
2022-11-17T11:55:56.463Z,95.61
2022-11-17T11:56:56.452Z,95.40
2022-11-17T11:57:56.454Z,95.20
2022-11-17T11:58:56.451Z,95.20
2022-11-17T12:00:02.420Z,95.15
2022-11-17T12:00:57.412Z,95.15
2022-11-17T12:01:56.441Z,95.25
2022-11-17T12:02:56.420Z,95.36
2022-11-17T12:03:56.385Z,95.15
2022-11-17T12:04:56.396Z,94.84
2022-11-17T12:05:56.369Z,94.54
2022-11-17T12:06:56.378Z,94.33
2022-11-17T12:07:56.336Z,94.12
2022-11-17T12:08:56.336Z,94.02
2022-11-17T12:09:56.349Z,94.02
2022-11-17T12:10:56.319Z,94.02
2022-11-17T12:11:56.298Z,94.12
2022-11-17T12:12:56.289Z,94.12
2022-11-17T12:13:56.277Z,94.02
2022-11-17T12:14:56.307Z,93.71
2022-11-17T12:15:56.248Z,93.62
2022-11-17T12:16:56.247Z,93.37
2022-11-17T12:17:56.235Z,93.06
2022-11-17T12:18:56.231Z,92.85
2022-11-17T12:19:56.230Z,92.96
2022-11-17T12:20:56.211Z,92.96
2022-11-17T12:21:56.190Z,93.26
2022-11-17T12:22:56.189Z,93.47
2022-11-17T12:23:56.175Z,93.77
2022-11-17T12:24:56.181Z,93.77
2022-11-17T12:25:56.152Z,93.77
2022-11-17T12:26:56.163Z,93.98
2022-11-17T12:27:56.130Z,94.08
2022-11-17T12:28:56.122Z,94.39
2022-11-17T12:29:56.131Z,94.49
2022-11-17T12:30:56.102Z,94.18
2022-11-17T12:31:56.084Z,93.98
2022-11-17T12:32:56.083Z,93.98
2022-11-17T12:33:56.063Z,94.08
2022-11-17T12:34:56.075Z,94.08
2022-11-17T12:35:56.062Z,93.98
2022-11-17T12:36:56.035Z,93.98
2022-11-17T12:37:56.025Z,93.98
2022-11-17T12:38:56.014Z,93.67
2022-11-17T12:39:56.022Z,93.47
2022-11-17T12:40:56.006Z,93.67
2022-11-17T12:41:55.979Z,94.08
2022-11-17T12:42:55.975Z,94.08
2022-11-17T12:43:55.958Z,94.18
2022-11-17T12:44:55.984Z,94.29
2022-11-17T12:45:55.937Z,93.98
2022-11-17T12:46:55.931Z,93.98
2022-11-17T12:48:18.801Z,94.08
2022-11-17T12:48:56.964Z,93.98
2022-11-17T12:49:55.913Z,94.18
2022-11-17T12:50:59.314Z,94.29
2022-11-17T12:51:56.872Z,94.18